Time;durP1;ratioP1;P1;durP2;ratioP2;P2;SDS_P1;SDS_P2;PMS_P1;PMS_P2;Temp;Humidity;BMP_temperature;BMP_pressure;BME280_temperature;BME280_humidity;BME280_pressure;Samples;Min_cycle;Max_cycle;Signal;HPM_P1;HPM_P2
2021/12/23 00:00:20;;;;;;;11.97;8.73;;;0.40;71.00;-0.10;96633.00;;;;5093493;28;20990;-84
2021/12/23 00:02:47;;;;;;;10.57;8.47;;;0.40;70.90;-0.10;96619.00;;;;5095259;28;20430;-84
2021/12/23 00:05:14;;;;;;;10.33;8.47;;;0.40;71.00;-0.10;96622.00;;;;5108734;28;20462;-83
2021/12/23 00:07:41;;;;;;;11.83;8.97;;;0.30;71.00;-0.20;96618.00;;;;5104721;28;20438;-83
2021/12/23 00:10:09;;;;;;;9.53;8.13;;;0.30;71.00;-0.20;96616.00;;;;5107221;28;20459;-83
2021/12/23 00:12:39;;;;;;;10.53;8.23;;;0.30;71.00;-0.20;96620.00;;;;5096249;28;20921;-83
2021/12/23 00:15:22;;;;;;;11.07;8.70;;;0.30;71.00;-0.20;96606.00;;;;5093919;28;20461;-83
2021/12/23 00:17:59;;;;;;;12.07;8.73;;;0.30;70.80;-0.30;96607.00;;;;5093469;28;20448;-83
2021/12/23 00:23:24;;;;;;;10.27;8.63;;;0.20;70.90;-0.30;96603.00;;;;5093822;28;20433;-83
2021/12/23 00:25:55;;;;;;;11.57;8.03;;;0.20;70.90;-0.40;96596.00;;;;5093707;28;20551;-83
2021/12/23 00:28:23;;;;;;;11.57;8.17;;;0.10;70.80;-0.40;96595.00;;;;5095293;28;20444;-83
2021/12/23 00:30:51;;;;;;;9.63;7.73;;;0.10;70.70;-0.40;96604.00;;;;5094204;28;20437;-83
2021/12/23 00:33:21;;;;;;;11.80;8.27;;;0.10;70.80;-0.50;96602.00;;;;5094104;28;20444;-83
2021/12/23 00:35:48;;;;;;;10.10;8.53;;;0.10;70.90;-0.50;96588.00;;;;5094458;28;20450;-83
2021/12/23 00:38:20;;;;;;;11.63;8.20;;;0.00;70.70;-0.50;96592.00;;;;5093785;28;20808;-83
2021/12/23 00:40:47;;;;;;;9.80;7.93;;;0.00;70.80;-0.50;96583.00;;;;5094502;28;20572;-82
2021/12/23 00:43:15;;;;;;;11.27;8.10;;;0.00;70.90;-0.50;96588.00;;;;5094467;28;20595;-83
2021/12/23 00:45:42;;;;;;;13.63;8.77;;;0.00;71.00;-0.50;96592.00;;;;5093407;28;20468;-83
2021/12/23 00:48:10;;;;;;;12.40;9.37;;;0.00;71.00;-0.50;96589.00;;;;5093368;28;20448;-83
2021/12/23 00:50:37;;;;;;;12.17;8.93;;;0.00;71.10;-0.50;96579.00;;;;5092968;28;20460;-82
2021/12/23 00:53:08;;;;;;;12.47;8.80;;;0.00;71.20;-0.50;96576.00;;;;5092667;28;20442;-83
2021/12/23 00:55:35;;;;;;;11.53;8.97;;;-0.10;71.10;-0.50;96569.00;;;;5092845;28;20469;-83
2021/12/23 00:58:03;;;;;;;13.93;9.33;;;0.00;71.20;-0.50;96570.00;;;;5093530;28;20554;-83
2021/12/23 01:00:31;;;;;;;11.63;8.63;;;-0.10;71.20;-0.50;96571.00;;;;5092821;28;20473;-83
2021/12/23 01:03:00;;;;;;;11.57;8.80;;;-0.10;71.20;-0.50;96570.00;;;;5090741;28;20876;-83
2021/12/23 01:05:29;;;;;;;12.57;9.07;;;-0.10;71.20;-0.50;96570.00;;;;5092261;28;20846;-83
2021/12/23 01:07:57;;;;;;;13.27;9.60;;;-0.10;71.20;-0.50;96570.00;;;;5092679;28;20429;-83
2021/12/23 01:10:25;;;;;;;12.93;9.43;;;-0.10;71.00;-0.50;96575.00;;;;5092923;28;20520;-83
2021/12/23 01:12:58;;;;;;;13.77;8.47;;;-0.10;71.10;-0.60;96580.00;;;;5092649;28;20521;-83
2021/12/23 01:18:21;;;;;;;11.93;9.07;;;-0.10;71.10;-0.60;96582.00;;;;5086599;28;20438;-84
2021/12/23 01:20:53;;;;;;;14.50;9.90;;;-0.10;71.20;-0.60;96569.00;;;;5092702;28;20492;-83
2021/12/23 01:23:23;;;;;;;13.67;10.93;;;-0.10;71.00;-0.60;96578.00;;;;5095291;28;21078;-83
2021/12/23 01:25:51;;;;;;;14.27;9.97;;;-0.10;71.20;-0.60;96576.00;;;;5095727;28;20476;-83
2021/12/23 01:28:20;;;;;;;13.40;9.83;;;-0.10;71.30;-0.60;96574.00;;;;5096366;28;20432;-83
2021/12/23 01:30:48;;;;;;;16.63;10.80;;;-0.10;71.40;-0.60;96582.00;;;;5095643;28;20966;-83
2021/12/23 01:33:17;;;;;;;13.27;10.77;;;-0.10;71.50;-0.60;96585.00;;;;5093901;28;20519;-83
2021/12/23 01:35:45;;;;;;;15.43;10.33;;;-0.10;71.50;-0.60;96584.00;;;;5096103;28;20447;-83
2021/12/23 01:38:13;;;;;;;12.83;9.63;;;-0.10;71.60;-0.60;96589.00;;;;5096144;28;20440;-83
2021/12/23 01:40:40;;;;;;;15.17;10.40;;;-0.10;71.70;-0.50;96591.00;;;;5096240;28;20843;-83
2021/12/23 01:43:07;;;;;;;16.10;10.73;;;-0.10;71.70;-0.50;96592.00;;;;5096397;28;20827;-83
2021/12/23 01:45:35;;;;;;;14.37;10.13;;;-0.10;71.70;-0.50;96590.00;;;;5095158;28;20473;-84
2021/12/23 01:48:04;;;;;;;13.43;10.03;;;0.00;71.80;-0.50;96586.00;;;;5092227;28;20441;-83
2021/12/23 01:50:34;;;;;;;14.87;10.33;;;0.00;71.80;-0.40;96584.00;;;;5105395;28;20532;-83
2021/12/23 01:53:01;;;;;;;14.50;10.17;;;0.00;71.70;-0.40;96588.00;;;;5103060;28;20432;-83
2021/12/23 01:55:30;;;;;;;15.23;10.67;;;0.00;71.70;-0.40;96583.00;;;;5096395;28;20814;-83
2021/12/23 01:57:59;;;;;;;16.23;10.27;;;0.00;71.70;-0.40;96574.00;;;;5082783;28;20437;-83
2021/12/23 02:00:30;;;;;;;13.17;9.10;;;0.00;71.60;-0.40;96569.00;;;;5098689;28;20441;-83
2021/12/23 02:02:57;;;;;;;14.87;10.77;;;0.10;71.70;-0.40;96566.00;;;;5098111;28;20525;-83
2021/12/23 02:05:25;;;;;;;15.83;10.00;;;0.10;71.70;-0.40;96553.00;;;;5097544;28;20462;-83
2021/12/23 02:07:53;;;;;;;12.70;9.63;;;0.10;71.70;-0.30;96558.00;;;;5098131;28;20437;-83
2021/12/23 02:10:20;;;;;;;13.27;10.53;;;0.10;71.70;-0.30;96557.00;;;;5097296;28;20437;-83
2021/12/23 02:12:50;;;;;;;13.23;11.17;;;0.10;71.70;-0.30;96556.00;;;;5096880;28;20978;-83
2021/12/23 02:15:19;;;;;;;11.63;9.77;;;0.10;71.60;-0.30;96559.00;;;;5096866;28;20454;-83
2021/12/23 02:17:49;;;;;;;12.87;10.20;;;0.10;71.60;-0.30;96557.00;;;;5096350;28;20449;-82
2021/12/23 02:20:20;;;;;;;13.13;9.63;;;0.20;71.70;-0.30;96549.00;;;;5096938;28;20430;-82
2021/12/23 02:22:48;;;;;;;12.80;9.13;;;0.20;71.70;-0.20;96542.00;;;;5096370;28;21202;-83
2021/12/23 02:25:17;;;;;;;14.00;10.17;;;0.20;71.70;-0.20;96553.00;;;;5096053;28;20966;-84
2021/12/23 02:27:46;;;;;;;13.27;9.73;;;0.20;71.70;-0.20;96548.00;;;;5096305;28;20536;-83
2021/12/23 02:30:19;;;;;;;12.83;9.60;;;0.20;71.70;-0.20;96536.00;;;;5096223;28;20429;-83
2021/12/23 02:32:47;;;;;;;12.87;8.90;;;0.20;71.70;-0.20;96526.00;;;;5095670;28;20472;-84
2021/12/23 02:35:19;;;;;;;11.40;9.10;;;0.20;71.70;-0.20;96529.00;;;;5095818;28;20454;-83
2021/12/23 02:37:47;;;;;;;12.43;8.90;;;0.30;71.70;-0.20;96523.00;;;;5095410;28;20808;-82
2021/12/23 02:40:29;;;;;;;13.80;9.73;;;0.30;71.70;-0.20;96517.00;;;;5095499;28;20449;-83
2021/12/23 02:43:06;;;;;;;12.07;9.23;;;0.30;71.60;-0.20;96517.00;;;;5095732;28;20477;-83
2021/12/23 02:45:34;;;;;;;12.20;9.13;;;0.30;71.60;-0.20;96524.00;;;;5095089;28;20452;-84
2021/12/23 02:48:02;;;;;;;12.53;9.10;;;0.30;71.40;-0.20;96522.00;;;;5083474;28;20438;-83
2021/12/23 02:50:31;;;;;;;11.27;8.77;;;0.30;71.40;-0.20;96522.00;;;;5074584;28;20426;-83
2021/12/23 02:53:00;;;;;;;11.30;8.90;;;0.30;71.20;-0.20;96517.00;;;;5074650;28;20924;-83
2021/12/23 02:55:27;;;;;;;12.53;8.40;;;0.30;71.20;-0.20;96506.00;;;;5074031;28;20461;-82
2021/12/23 02:57:54;;;;;;;10.77;8.33;;;0.30;71.30;-0.20;96506.00;;;;5074551;28;20438;-83
2021/12/23 03:00:22;;;;;;;9.27;7.87;;;0.20;71.30;-0.30;96515.00;;;;5074947;28;20434;-83
2021/12/23 03:02:50;;;;;;;11.80;8.50;;;0.20;71.30;-0.30;96507.00;;;;5088639;28;20521;-83
2021/12/23 03:05:17;;;;;;;13.47;9.00;;;0.20;71.30;-0.30;96510.00;;;;5094945;28;21154;-83
2021/12/23 03:07:45;;;;;;;10.53;8.20;;;0.20;71.30;-0.30;96504.00;;;;5095572;28;20911;-83
2021/12/23 03:10:12;;;;;;;11.73;9.23;;;0.20;71.30;-0.30;96504.00;;;;5094846;28;20449;-84
2021/12/23 03:12:39;;;;;;;13.33;9.27;;;0.20;71.30;-0.30;96505.00;;;;5095166;28;20803;-82
2021/12/23 03:15:08;;;;;;;13.50;9.27;;;0.20;71.30;-0.30;96509.00;;;;5094149;28;20528;-83
2021/12/23 03:17:35;;;;;;;11.20;9.17;;;0.20;71.30;-0.20;96504.00;;;;5090478;28;20934;-83
2021/12/23 03:20:03;;;;;;;13.93;8.90;;;0.20;71.30;-0.30;96487.00;;;;5093558;28;20448;-82
2021/12/23 03:22:30;;;;;;;12.83;8.87;;;0.20;71.40;-0.30;96494.00;;;;5094309;28;20479;-83
2021/12/23 03:24:59;;;;;;;11.83;8.67;;;0.20;71.40;-0.30;96502.00;;;;5094300;28;20457;-83
2021/12/23 03:27:26;;;;;;;12.37;9.27;;;0.20;71.50;-0.20;96503.00;;;;5094923;28;20861;-82
2021/12/23 03:29:54;;;;;;;12.97;9.23;;;0.20;71.60;-0.20;96508.00;;;;5093735;28;20437;-83
2021/12/23 03:32:21;;;;;;;9.70;8.23;;;0.20;71.60;-0.20;96502.00;;;;5095787;28;20456;-83
2021/12/23 03:34:48;;;;;;;12.90;8.97;;;0.20;71.70;-0.20;96495.00;;;;5098002;28;20429;-83
2021/12/23 03:37:16;;;;;;;10.93;8.67;;;0.20;71.70;-0.20;96498.00;;;;5096834;28;20438;-83
2021/12/23 03:39:44;;;;;;;10.93;8.63;;;0.20;71.60;-0.20;96493.00;;;;5094542;28;20445;-83
2021/12/23 03:42:13;;;;;;;11.80;8.93;;;0.20;71.60;-0.20;96490.00;;;;5094650;28;21005;-82
2021/12/23 03:44:40;;;;;;;12.23;9.13;;;0.20;71.70;-0.20;96492.00;;;;5092994;28;20441;-82
2021/12/23 03:47:07;;;;;;;12.77;9.67;;;0.20;71.70;-0.20;96478.00;;;;5094652;28;20452;-80
2021/12/23 03:49:34;;;;;;;12.27;9.07;;;0.20;71.70;-0.10;96484.00;;;;5094289;28;20441;-81
2021/12/23 03:52:02;;;;;;;11.63;8.97;;;0.30;71.90;-0.10;96485.00;;;;5093718;28;20440;-79
2021/12/23 03:54:29;;;;;;;11.57;9.20;;;0.30;71.90;-0.10;96483.00;;;;5092965;28;20505;-80
2021/12/23 03:56:56;;;;;;;13.07;8.90;;;0.30;71.90;-0.10;96479.00;;;;5093330;28;20444;-79
2021/12/23 03:59:24;;;;;;;11.07;8.83;;;0.30;72.00;0.00;96471.00;;;;5093742;28;20430;-80
2021/12/23 04:01:51;;;;;;;11.60;8.97;;;0.40;72.00;0.00;96470.00;;;;5087272;28;20478;-80
2021/12/23 04:04:18;;;;;;;10.73;8.27;;;0.40;72.10;0.00;96452.00;;;;5072891;28;20438;-79
2021/12/23 04:06:45;;;;;;;11.93;9.20;;;0.40;72.10;0.00;96460.00;;;;5082871;28;20457;-80
2021/12/23 04:09:12;;;;;;;11.53;9.37;;;0.40;72.20;0.00;96452.00;;;;5093226;28;20436;-79
2021/12/23 04:11:39;;;;;;;11.83;8.87;;;0.40;72.10;0.00;96451.00;;;;5080588;28;20439;-80
2021/12/23 04:14:06;;;;;;;14.33;9.33;;;0.40;72.10;0.00;96448.00;;;;5073058;28;20435;-80
2021/12/23 04:16:35;;;;;;;12.70;9.00;;;0.40;72.00;0.00;96444.00;;;;5072989;28;20458;-80
2021/12/23 04:19:06;;;;;;;12.70;8.83;;;0.50;71.90;0.00;96453.00;;;;5092298;28;20438;-79
2021/12/23 04:21:33;;;;;;;12.27;9.30;;;0.50;71.70;0.00;96444.00;;;;5092790;28;20461;-81
2021/12/23 04:24:00;;;;;;;14.10;9.50;;;0.50;71.70;0.00;96430.00;;;;5092927;28;20823;-79
2021/12/23 04:26:27;;;;;;;12.73;10.23;;;0.50;71.60;0.00;96421.00;;;;5092858;28;20465;-83
2021/12/23 04:28:54;;;;;;;13.93;9.70;;;0.40;71.40;0.00;96422.00;;;;5092681;28;20792;-79
2021/12/23 04:31:24;;;;;;;13.77;9.73;;;0.40;71.30;0.00;96408.00;;;;5082827;28;20434;-80
2021/12/23 04:33:55;;;;;;;15.60;9.83;;;0.40;71.30;-0.10;96409.00;;;;5072747;28;20449;-82
2021/12/23 04:36:26;;;;;;;11.87;9.70;;;0.40;71.20;-0.10;96405.00;;;;5077028;28;20469;-80
2021/12/23 04:38:53;;;;;;;13.57;10.70;;;0.40;71.20;-0.20;96402.00;;;;5093088;28;20442;-81
2021/12/23 04:41:21;;;;;;;13.40;9.37;;;0.30;71.00;-0.20;96398.00;;;;5092495;28;20915;-80
2021/12/23 04:43:48;;;;;;;14.33;9.60;;;0.30;71.00;-0.20;96396.00;;;;5092670;28;20436;-81
2021/12/23 04:46:15;;;;;;;14.80;9.90;;;0.30;71.10;-0.30;96390.00;;;;5092656;28;20456;-80
2021/12/23 04:48:45;;;;;;;13.80;10.10;;;0.20;71.10;-0.30;96384.00;;;;5092924;28;20459;-81
2021/12/23 04:51:14;;;;;;;12.00;9.23;;;0.20;71.20;-0.30;96382.00;;;;5092765;28;20441;-82
2021/12/23 04:53:42;;;;;;;12.47;8.93;;;0.20;71.20;-0.30;96380.00;;;;5092564;28;20442;-80
2021/12/23 04:56:09;;;;;;;15.53;10.17;;;0.20;71.20;-0.30;96385.00;;;;5094950;28;20449;-81
2021/12/23 04:58:36;;;;;;;12.60;9.03;;;0.20;71.20;-0.30;96389.00;;;;5096942;28;20441;-81
2021/12/23 05:01:06;;;;;;;12.23;9.07;;;0.20;71.80;-0.40;96398.00;;;;5096465;28;20437;-79
2021/12/23 05:03:34;;;;;;;13.67;9.07;;;0.10;71.00;-0.40;96402.00;;;;5097288;28;20483;-81
2021/12/23 05:06:01;;;;;;;12.40;9.60;;;0.10;71.10;-0.40;96397.00;;;;5116697;28;20448;-81
2021/12/23 05:08:29;;;;;;;16.07;9.93;;;0.10;71.00;-0.50;96392.00;;;;5116974;28;20796;-80
2021/12/23 05:10:56;;;;;;;16.17;9.67;;;0.10;71.00;-0.50;96394.00;;;;5116332;28;20472;-82
2021/12/23 05:13:23;;;;;;;17.90;10.73;;;0.00;70.70;-0.50;96387.00;;;;5115174;28;20428;-78
2021/12/23 05:15:50;;;;;;;16.47;10.87;;;0.00;70.80;-0.60;96380.00;;;;5114745;28;20456;-82
2021/12/23 05:18:18;;;;;;;16.30;10.33;;;0.00;70.70;-0.60;96376.00;;;;5097573;28;20490;-81
2021/12/23 05:20:45;;;;;;;14.17;10.53;;;-0.10;70.60;-0.60;96375.00;;;;5094861;28;20433;-81
2021/12/23 05:23:12;;;;;;;14.40;10.27;;;-0.10;70.70;-0.70;96389.00;;;;5094623;28;20549;-78
2021/12/23 05:25:40;;;;;;;14.83;9.73;;;-0.10;70.60;-0.70;96385.00;;;;5093893;28;20472;-81
2021/12/23 05:28:07;;;;;;;14.07;10.83;;;-0.20;70.60;-0.70;96381.00;;;;5094418;28;20413;-79
2021/12/23 05:30:34;;;;;;;13.10;10.23;;;-0.20;70.60;-0.80;96372.00;;;;5095925;28;20429;-78
2021/12/23 05:33:01;;;;;;;13.50;10.00;;;-0.20;70.70;-0.80;96368.00;;;;5095508;28;20461;-80
2021/12/23 05:35:28;;;;;;;14.47;10.03;;;-0.30;70.70;-0.80;96381.00;;;;5095524;28;20459;-78
2021/12/23 05:37:56;;;;;;;13.00;10.17;;;-0.30;70.70;-0.80;96377.00;;;;5095393;28;20965;-78
2021/12/23 05:40:28;;;;;;;14.80;11.17;;;-0.30;70.80;-0.90;96372.00;;;;5095524;28;20433;-78
2021/12/23 05:42:58;;;;;;;13.50;10.27;;;-0.30;71.00;-0.90;96379.00;;;;5095152;28;20473;-79
2021/12/23 05:45:25;;;;;;;17.73;10.53;;;-0.30;71.20;-0.90;96384.00;;;;5095454;28;20537;-80
2021/12/23 05:47:53;;;;;;;14.93;10.43;;;-0.30;71.30;-0.90;96386.00;;;;5094852;28;20445;-79
2021/12/23 05:50:23;;;;;;;13.93;9.40;;;-0.30;71.40;-0.90;96383.00;;;;5108601;28;20802;-81
2021/12/23 05:52:51;;;;;;;14.37;9.73;;;-0.30;71.20;-0.90;96387.00;;;;5096492;28;20448;-81
2021/12/23 05:55:19;;;;;;;14.47;9.67;;;-0.40;71.10;-1.00;96386.00;;;;5095998;28;20465;-81
2021/12/23 05:57:47;;;;;;;14.63;10.37;;;-0.40;70.90;-1.00;96369.00;;;;5098227;28;20918;-81
2021/12/23 06:00:20;;;;;;;14.33;10.17;;;-0.40;70.80;-1.00;96360.00;;;;5097013;28;20441;-79
2021/12/23 06:02:48;;;;;;;14.97;11.07;;;-0.40;70.80;-1.10;96358.00;;;;5094737;28;20471;-79
2021/12/23 06:05:16;;;;;;;13.07;9.50;;;-0.50;70.60;-1.10;96362.00;;;;5094960;28;20457;-77
2021/12/23 06:07:44;;;;;;;13.43;10.33;;;-0.50;70.50;-1.10;96350.00;;;;5094093;28;20444;-78
2021/12/23 06:10:14;;;;;;;15.47;10.83;;;-0.50;70.50;-1.10;96359.00;;;;5095016;28;20449;-78
2021/12/23 06:12:41;;;;;;;16.23;11.20;;;-0.50;70.60;-1.10;96343.00;;;;5094644;28;20546;-78
2021/12/23 06:15:10;;;;;;;13.73;9.83;;;-0.60;70.60;-1.20;96350.00;;;;5109066;28;20449;-80
2021/12/23 06:17:39;;;;;;;15.43;10.03;;;-0.60;70.60;-1.20;96357.00;;;;5102972;28;20444;-77
2021/12/23 06:20:08;;;;;;;14.43;9.93;;;-0.60;70.70;-1.20;96349.00;;;;5094886;28;20485;-78
2021/12/23 06:22:37;;;;;;;16.13;10.77;;;-0.60;70.40;-1.30;96347.00;;;;5095582;28;20854;-80
2021/12/23 06:25:08;;;;;;;13.07;9.70;;;-0.70;70.20;-1.30;96359.00;;;;5098644;28;20489;-80
2021/12/23 06:27:36;;;;;;;15.27;10.57;;;-0.70;70.30;-1.40;96343.00;;;;5097386;28;20414;-81
2021/12/23 06:30:12;;;;;;;14.03;9.97;;;-0.70;70.50;-1.40;96350.00;;;;5099464;28;20930;-81
2021/12/23 06:32:41;;;;;;;13.00;10.07;;;-0.70;70.50;-1.40;96363.00;;;;5100680;28;20468;-81
2021/12/23 06:35:10;;;;;;;14.00;10.13;;;-0.80;70.50;-1.40;96360.00;;;;5099913;28;20536;-83
2021/12/23 06:37:38;;;;;;;14.77;9.63;;;-0.80;70.50;-1.40;96359.00;;;;5099728;28;20445;-82
2021/12/23 06:40:07;;;;;;;12.40;10.00;;;-0.80;70.60;-1.40;96356.00;;;;5099276;28;20953;-82
2021/12/23 06:42:34;;;;;;;17.17;10.53;;;-0.80;70.60;-1.50;96356.00;;;;5098863;28;20477;-80
2021/12/23 06:45:01;;;;;;;14.37;10.77;;;-0.80;70.50;-1.50;96349.00;;;;5104897;28;20467;-84
2021/12/23 06:47:28;;;;;;;14.90;10.53;;;-0.90;70.40;-1.40;96353.00;;;;5108571;28;20440;-80
2021/12/23 06:49:57;;;;;;;15.50;10.60;;;-0.90;70.50;-1.40;96349.00;;;;5095773;28;21004;-80
2021/12/23 06:52:24;;;;;;;13.43;10.13;;;-0.90;70.70;-1.30;96354.00;;;;5095174;28;20445;-80
2021/12/23 06:54:53;;;;;;;14.93;11.07;;;-0.90;70.80;-1.30;96354.00;;;;5094082;28;20506;-82
2021/12/23 06:57:21;;;;;;;17.67;11.37;;;-0.90;70.90;-1.20;96353.00;;;;5093618;28;20452;-79
2021/12/23 06:59:48;;;;;;;18.23;11.20;;;-0.90;70.90;-1.20;96366.00;;;;5094118;28;20445;-80
2021/12/23 07:02:15;;;;;;;15.87;10.97;;;-0.90;70.80;-1.20;96364.00;;;;5093682;28;20442;-82
2021/12/23 07:04:43;;;;;;;19.77;12.50;;;-0.80;70.90;-1.10;96351.00;;;;5093856;28;20432;-80
2021/12/23 07:07:24;;;;;;;17.93;12.20;;;-0.80;70.80;-1.10;96354.00;;;;5093969;28;20522;-80
2021/12/23 07:09:51;;;;;;;21.87;14.17;;;-0.80;70.70;-1.10;96355.00;;;;5094157;28;20433;-79
2021/12/23 07:12:18;;;;;;;21.10;12.93;;;-0.80;70.80;-1.10;96367.00;;;;5093424;28;20931;-79
2021/12/23 07:14:45;;;;;;;18.73;13.33;;;-0.80;70.80;-1.10;96371.00;;;;5093738;28;20931;-79
2021/12/23 07:17:12;;;;;;;20.07;12.30;;;-0.80;70.80;-1.00;96380.00;;;;5094094;28;20429;-79
2021/12/23 07:19:39;;;;;;;18.40;12.60;;;-0.80;71.00;-1.00;96363.00;;;;5093851;28;20429;-79
2021/12/23 07:22:06;;;;;;;20.77;13.23;;;-0.80;71.60;-1.00;96373.00;;;;5093883;28;20437;-81
2021/12/23 07:24:35;;;;;;;18.07;14.53;;;-0.80;70.80;-1.00;96368.00;;;;5093654;28;20437;-80
2021/12/23 07:27:02;;;;;;;20.47;15.10;;;-0.70;70.90;-1.00;96362.00;;;;5093325;28;20488;-82
2021/12/23 07:29:29;;;;;;;20.90;14.60;;;-0.70;71.80;-1.00;96369.00;;;;5092886;28;20950;-80
2021/12/23 07:31:56;;;;;;;19.17;13.60;;;-0.70;71.20;-0.90;96380.00;;;;5093257;28;20803;-81
2021/12/23 07:34:23;;;;;;;20.40;13.90;;;-0.70;71.30;-0.80;96385.00;;;;5093319;28;20437;-79
2021/12/23 07:36:50;;;;;;;21.50;14.83;;;-0.60;71.50;-0.80;96377.00;;;;5093514;28;20452;-84
2021/12/23 07:39:17;;;;;;;20.23;13.20;;;-0.60;71.60;-0.70;96374.00;;;;5093013;28;20434;-79
2021/12/23 07:41:46;;;;;;;19.37;13.73;;;-0.60;71.70;-0.70;96384.00;;;;5093401;28;20954;-82
2021/12/23 07:44:20;;;;;;;20.37;14.17;;;-0.50;71.90;-0.60;96377.00;;;;5093606;28;20481;-81
2021/12/23 07:46:49;;;;;;;21.90;14.60;;;-0.50;71.90;-0.60;96372.00;;;;5093400;28;20457;-80
2021/12/23 07:49:17;;;;;;;21.67;14.33;;;-0.40;72.00;-0.50;96372.00;;;;5093558;28;20429;-83
2021/12/23 07:51:44;;;;;;;20.07;13.83;;;-0.40;72.00;-0.40;96387.00;;;;5092970;28;20436;-79
2021/12/23 07:54:12;;;;;;;19.30;14.47;;;-0.30;72.10;-0.40;96386.00;;;;5092738;28;20436;-80
2021/12/23 07:56:39;;;;;;;20.00;13.43;;;-0.30;72.20;-0.30;96376.00;;;;5092782;28;20461;-82
2021/12/23 07:59:07;;;;;;;17.53;12.43;;;-0.20;72.30;-0.20;96381.00;;;;5080344;28;20951;-81
2021/12/23 08:01:34;;;;;;;18.77;12.73;;;-0.10;72.40;-0.10;96377.00;;;;5092497;28;20433;-79
2021/12/23 08:04:01;;;;;;;17.23;12.30;;;-0.10;72.40;-0.10;96388.00;;;;5092734;28;20899;-81
2021/12/23 08:06:28;;;;;;;21.77;13.17;;;0.00;72.40;0.00;96371.00;;;;5092764;28;20472;-80
2021/12/23 08:08:55;;;;;;;21.60;13.80;;;0.10;72.70;0.10;96368.00;;;;5092913;28;20469;-80
2021/12/23 08:11:23;;;;;;;18.17;13.00;;;0.10;72.60;0.10;96366.00;;;;5086739;28;20441;-79
2021/12/23 08:13:51;;;;;;;18.20;12.53;;;0.20;72.60;0.20;96365.00;;;;5093038;28;20434;-79
2021/12/23 08:16:19;;;;;;;17.43;12.47;;;0.20;72.50;0.30;96367.00;;;;5093045;28;20461;-81
2021/12/23 08:18:46;;;;;;;17.80;12.57;;;0.40;72.60;0.40;96370.00;;;;5092735;28;20434;-80
2021/12/23 08:21:13;;;;;;;16.93;11.97;;;0.40;72.60;0.50;96358.00;;;;5092387;28;20438;-80
2021/12/23 08:23:40;;;;;;;17.03;11.40;;;0.50;72.70;0.50;96363.00;;;;5093003;28;20576;-79
2021/12/23 08:26:14;;;;;;;16.10;10.80;;;0.60;72.60;0.60;96356.00;;;;5092292;28;21048;-80
2021/12/23 08:28:42;;;;;;;18.67;12.23;;;0.60;72.60;0.70;96356.00;;;;5075101;28;20495;-79
2021/12/23 08:31:09;;;;;;;19.00;12.50;;;0.70;72.60;0.80;96350.00;;;;5072189;28;20687;-79
2021/12/23 08:33:38;;;;;;;18.47;12.27;;;0.80;72.40;0.80;96337.00;;;;5075926;28;20434;-81
2021/12/23 08:36:06;;;;;;;16.50;11.50;;;0.90;72.40;0.90;96340.00;;;;5093518;28;20460;-80
2021/12/23 08:38:33;;;;;;;19.47;12.60;;;0.90;72.40;1.00;96331.00;;;;5093070;28;20463;-80
2021/12/23 08:41:00;;;;;;;16.30;11.77;;;1.00;72.50;1.00;96342.00;;;;5093895;28;20437;-84
2021/12/23 08:43:27;;;;;;;15.60;11.57;;;1.10;72.50;1.10;96347.00;;;;5093552;28;20481;-80
2021/12/23 08:45:54;;;;;;;17.03;11.47;;;1.10;72.50;1.20;96348.00;;;;5093430;28;20456;-83
2021/12/23 08:48:21;;;;;;;16.77;10.90;;;1.20;72.40;1.20;96339.00;;;;5088456;28;20442;-80
2021/12/23 08:50:50;;;;;;;16.10;11.17;;;1.20;72.20;1.30;96341.00;;;;5093563;28;20433;-83
2021/12/23 08:53:18;;;;;;;15.77;11.53;;;1.30;72.30;1.40;96343.00;;;;5087373;28;20449;-81
2021/12/23 08:55:46;;;;;;;15.90;11.07;;;1.40;72.30;1.40;96335.00;;;;5091853;28;20452;-79
2021/12/23 08:58:13;;;;;;;17.87;12.00;;;1.40;72.50;1.50;96329.00;;;;5092719;28;20438;-81
2021/12/23 09:00:41;;;;;;;19.73;12.90;;;1.50;72.50;1.60;96331.00;;;;5094120;28;20547;-79
2021/12/23 09:03:11;;;;;;;18.90;12.57;;;1.60;72.50;1.70;96331.00;;;;5077645;28;20863;-80
2021/12/23 09:05:41;;;;;;;18.30;12.03;;;1.70;72.60;1.80;96333.00;;;;5074010;28;20488;-80
2021/12/23 09:08:10;;;;;;;20.20;12.57;;;1.70;72.50;1.90;96348.00;;;;5074433;28;20594;-80
2021/12/23 09:10:38;;;;;;;20.47;12.50;;;1.80;72.50;1.90;96343.00;;;;5073130;28;20800;-81
2021/12/23 09:13:05;;;;;;;17.83;12.27;;;1.90;72.60;2.00;96356.00;;;;5073352;28;20915;-82
2021/12/23 09:15:33;;;;;;;16.80;12.50;;;2.00;72.50;2.10;96358.00;;;;5092560;28;20461;-79
2021/12/23 09:18:01;;;;;;;20.33;13.67;;;2.00;72.50;2.20;96348.00;;;;5090444;28;20437;-80
2021/12/23 09:20:28;;;;;;;20.33;13.43;;;2.10;72.70;2.30;96356.00;;;;5091833;28;20440;-80
2021/12/23 09:22:55;;;;;;;20.33;12.83;;;2.20;72.70;2.40;96353.00;;;;5090204;28;20436;-82
2021/12/23 09:25:26;;;;;;;20.13;13.80;;;2.30;72.80;2.50;96347.00;;;;5093076;28;20457;-80
2021/12/23 09:28:02;;;;;;;19.23;12.47;;;2.40;72.70;2.60;96352.00;;;;5091785;28;20441;-80
2021/12/23 09:33:16;;;;;;;19.40;12.90;;;2.60;72.60;2.80;96336.00;;;;5092286;28;20516;-82
2021/12/23 09:35:43;;;;;;;19.97;13.00;;;2.70;72.70;2.90;96333.00;;;;5100836;28;20461;-80
2021/12/23 09:38:11;;;;;;;17.77;12.20;;;2.80;72.60;2.90;96336.00;;;;5096906;28;20441;-81
2021/12/23 09:40:40;;;;;;;21.87;13.80;;;2.80;72.50;3.00;96340.00;;;;5109919;28;20436;-82
2021/12/23 09:43:11;;;;;;;22.33;13.10;;;2.90;72.60;3.10;96336.00;;;;5101312;28;20450;-81
2021/12/23 09:45:42;;;;;;;20.67;13.10;;;3.00;72.50;3.20;96334.00;;;;5109487;28;20456;-81
2021/12/23 09:48:10;;;;;;;20.20;13.07;;;3.10;72.70;3.30;96343.00;;;;5096950;28;20540;-79
2021/12/23 09:50:42;;;;;;;22.60;13.90;;;3.20;72.70;3.40;96339.00;;;;5113543;28;20976;-79
2021/12/23 09:53:09;;;;;;;20.27;12.47;;;3.30;72.70;3.50;96337.00;;;;5096645;28;20509;-81
2021/12/23 09:55:39;;;;;;;20.43;12.90;;;3.40;72.40;3.50;96338.00;;;;5097380;28;20460;-81
2021/12/23 09:58:06;;;;;;;22.10;13.40;;;3.40;72.60;3.60;96322.00;;;;5098366;28;20445;-81
2021/12/23 10:00:38;;;;;;;20.90;13.83;;;3.50;72.80;3.70;96330.00;;;;5107345;28;20481;-81
2021/12/23 10:03:07;;;;;;;21.57;14.00;;;3.60;72.40;3.80;96324.00;;;;5102689;28;20440;-81
2021/12/23 10:05:36;;;;;;;21.47;13.07;;;3.70;72.40;3.90;96320.00;;;;5096438;28;20223;-81
2021/12/23 10:08:06;;;;;;;20.87;13.60;;;3.80;73.30;3.90;96315.00;;;;5111017;28;20455;-81
2021/12/23 10:10:39;;;;;;;21.73;13.40;;;3.80;72.40;4.00;96310.00;;;;5099111;28;20192;-81
2021/12/23 10:30:49;;;;;;;24.10;13.37;;;4.40;72.30;4.60;96291.00;;;;5096095;28;20191;-82
2021/12/23 10:33:45;;;;;;;25.70;14.67;;;4.50;72.30;4.70;96285.00;;;;5106010;28;20281;-82
2021/12/23 10:38:57;;;;;;;23.27;14.57;;;4.70;72.20;4.90;96282.00;;;;5098254;28;20525;-82
2021/12/23 10:41:28;;;;;;;23.13;14.43;;;4.70;72.30;4.90;96272.00;;;;5096496;28;20198;-81
2021/12/23 10:43:58;;;;;;;23.73;14.10;;;4.80;72.20;5.00;96270.00;;;;5109343;28;20214;-82
2021/12/23 10:46:30;;;;;;;26.93;14.93;;;4.90;72.80;5.10;96273.00;;;;5105230;28;20221;-81
2021/12/23 10:49:14;;;;;;;23.33;14.67;;;4.90;71.90;5.20;96262.00;;;;5106786;28;20191;-81
2021/12/23 10:51:58;;;;;;;22.33;13.50;;;5.00;71.80;5.20;96254.00;;;;5095919;28;20199;-82
2021/12/23 11:00:18;;;;;;;25.20;14.17;;;5.20;71.80;5.50;96255.00;;;;5080770;28;20693;-81
2021/12/23 11:03:06;;;;;;;23.93;14.40;;;5.30;72.00;5.60;96235.00;;;;5102006;28;20585;-82
2021/12/23 11:05:38;;;;;;;26.83;15.00;;;5.40;71.70;5.60;96234.00;;;;5101254;28;20222;-81
2021/12/23 11:08:18;;;;;;;24.53;14.77;;;5.40;71.70;5.70;96227.00;;;;5085876;28;20237;-82
2021/12/23 11:11:22;;;;;;;23.00;13.97;;;5.50;71.80;5.80;96209.00;;;;5103759;28;20187;-82
2021/12/23 11:28:37;;;;;;;14.33;9.73;;;5.70;70.80;6.00;96198.00;;;;5094485;28;20209;-83
2021/12/23 11:39:44;;;;;;;16.53;10.40;;;5.90;70.40;6.20;96176.00;;;;5103499;28;20560;-82
2021/12/23 11:42:17;;;;;;;16.23;9.93;;;6.00;70.70;6.30;96176.00;;;;5093996;28;20282;-83
2021/12/23 11:44:45;;;;;;;16.50;10.73;;;6.00;70.30;6.30;96180.00;;;;5108016;28;20310;-82
2021/12/23 11:47:15;;;;;;;15.63;10.03;;;6.10;70.40;6.40;96165.00;;;;5093442;28;20202;-83
2021/12/23 11:49:45;;;;;;;18.93;10.40;;;6.10;70.50;6.40;96163.00;;;;5095361;28;20187;-83
2021/12/23 11:52:15;;;;;;;16.87;10.00;;;6.20;70.50;6.50;96157.00;;;;5091545;28;20206;-83
2021/12/23 11:54:46;;;;;;;14.43;9.47;;;6.30;70.10;6.50;96159.00;;;;5092970;28;20211;-83